Time;durP1;ratioP1;P1;durP2;ratioP2;P2;SDS_P1;SDS_P2;PMS_P1;PMS_P2;Temp;Humidity;BMP_temperature;BMP_pressure;BME280_temperature;BME280_humidity;BME280_pressure;Samples;Min_cycle;Max_cycle;Signal;HPM_P1;HPM_P2
2023/08/18 00:00:06;;;;;;;8.90;7.10;;;;;;;20.57;95.33;98148.23;107465;1275;22580;-83
2023/08/18 00:02:55;;;;;;;11.10;6.60;;;;;;;20.62;95.37;98149.06;107440;1275;22532;-84
2023/08/18 00:05:24;;;;;;;9.40;7.10;;;;;;;20.67;95.43;98151.58;107380;1275;22529;-84
2023/08/18 00:07:52;;;;;;;13.90;8.10;;;;;;;20.70;95.24;98149.08;107442;1275;22706;-84
2023/08/18 00:10:20;;;;;;;10.70;6.80;;;;;;;20.71;94.63;98160.20;107363;1275;22523;-83
2023/08/18 00:12:48;;;;;;;11.30;7.20;;;;;;;20.70;95.11;98165.33;107443;1275;22633;-84
2023/08/18 00:15:16;;;;;;;9.70;7.30;;;;;;;20.74;95.50;98163.79;107451;1260;22945;-83
2023/08/18 00:17:44;;;;;;;8.90;7.20;;;;;;;20.77;95.05;98163.14;107389;1275;25406;-83
2023/08/18 00:20:12;;;;;;;10.90;8.20;;;;;;;20.74;95.08;98167.45;107437;1275;23279;-84
2023/08/18 00:22:40;;;;;;;12.40;8.40;;;;;;;20.73;95.04;98167.89;107436;1275;25530;-83
2023/08/18 00:25:08;;;;;;;12.00;9.30;;;;;;;20.70;95.40;98166.75;107461;1275;22650;-83
2023/08/18 00:27:37;;;;;;;11.50;8.60;;;;;;;20.70;95.81;98166.28;103526;1275;5307372;-84
2023/08/18 00:30:07;;;;;;;12.60;8.80;;;;;;;20.69;95.49;98169.38;107357;1275;24316;-83
2023/08/18 00:32:35;;;;;;;13.30;10.30;;;;;;;20.69;95.65;98167.43;107159;1275;22597;-83
2023/08/18 00:35:03;;;;;;;11.00;8.90;;;;;;;20.61;94.77;98164.75;107168;1275;25577;-82
2023/08/18 00:37:31;;;;;;;12.30;8.40;;;;;;;20.56;95.29;98160.73;107324;1275;25451;-84
2023/08/18 00:39:59;;;;;;;13.20;9.80;;;;;;;20.59;95.96;98164.96;107376;1275;22614;-84
2023/08/18 00:42:27;;;;;;;13.00;8.20;;;;;;;20.59;95.67;98166.05;107311;1275;22557;-83
2023/08/18 00:44:55;;;;;;;11.60;8.60;;;;;;;20.61;95.79;98161.40;107084;1275;22872;-82
2023/08/18 00:47:23;;;;;;;13.00;8.30;;;;;;;20.61;95.65;98158.75;107487;1275;24241;-83
2023/08/18 00:49:53;;;;;;;10.70;8.30;;;;;;;20.60;95.45;98161.06;107477;1275;24384;-83
2023/08/18 00:52:21;;;;;;;10.70;7.40;;;;;;;20.59;95.45;98160.71;107647;1275;25397;-84
2023/08/18 00:54:50;;;;;;;9.90;8.00;;;;;;;20.60;95.64;98162.93;107528;1275;25370;-85
2023/08/18 00:57:22;;;;;;;10.90;6.80;;;;;;;20.61;95.40;98156.55;107418;1275;22528;-85
2023/08/18 00:59:50;;;;;;;10.40;7.20;;;;;;;20.59;95.28;98150.02;107412;1275;22991;-84
2023/08/18 01:02:18;;;;;;;11.60;7.30;;;;;;;20.56;95.40;98147.99;107290;1275;22584;-84
2023/08/18 01:04:47;;;;;;;8.80;7.40;;;;;;;20.55;95.26;98149.52;107514;1275;22521;-83
2023/08/18 01:07:15;;;;;;;10.60;8.00;;;;;;;20.49;95.00;98148.91;107378;1275;22653;-83
2023/08/18 01:09:43;;;;;;;11.60;7.40;;;;;;;20.44;94.98;98146.61;107388;1275;22557;-82
2023/08/18 01:12:29;;;;;;;9.70;7.30;;;;;;;20.40;95.10;98146.83;107405;1275;24371;-84
2023/08/18 01:15:14;;;;;;;9.50;6.40;;;;;;;20.40;95.65;98142.23;107251;1275;22584;-84
2023/08/18 01:17:55;;;;;;;9.40;7.80;;;;;;;20.40;95.38;98140.52;107207;1275;23290;-84
2023/08/18 01:20:24;;;;;;;11.40;7.10;;;;;;;20.40;95.28;98137.68;107376;1275;25591;-84
2023/08/18 01:23:02;;;;;;;11.50;7.00;;;;;;;20.39;95.27;98135.80;107486;1275;24201;-83
2023/08/18 01:25:31;;;;;;;10.90;7.40;;;;;;;20.35;94.66;98137.18;107145;1275;24221;-83
2023/08/18 01:28:01;;;;;;;12.00;7.30;;;;;;;20.24;94.70;98133.27;107465;1275;22642;-85
2023/08/18 01:30:41;;;;;;;8.20;6.80;;;;;;;20.21;95.02;98130.77;107263;1275;22570;-84
2023/08/18 01:33:20;;;;;;;13.60;7.30;;;;;;;20.20;94.93;98133.95;107493;1275;26219;-83
2023/08/18 01:35:52;;;;;;;13.80;8.50;;;;;;;20.14;94.72;98130.23;107205;1275;25511;-82
2023/08/18 01:38:24;;;;;;;9.10;7.40;;;;;;;20.09;94.77;98126.37;107446;1275;24224;-83
2023/08/18 01:40:53;;;;;;;9.80;7.10;;;;;;;20.04;94.81;98124.30;107319;1275;26653;-83
2023/08/18 01:43:22;;;;;;;13.00;7.10;;;;;;;20.00;94.67;98130.83;107338;1275;22673;-84
2023/08/18 01:45:50;;;;;;;8.90;7.00;;;;;;;19.97;94.86;98128.51;107436;1275;22600;-82
2023/08/18 01:48:18;;;;;;;10.50;8.30;;;;;;;19.94;94.83;98130.70;107318;1275;25377;-82
2023/08/18 01:50:46;;;;;;;8.10;7.00;;;;;;;19.89;94.76;98129.42;107365;1275;24247;-84
2023/08/18 01:53:14;;;;;;;10.40;7.50;;;;;;;19.88;95.15;98124.26;107357;1275;22594;-83
2023/08/18 01:55:43;;;;;;;9.50;7.20;;;;;;;19.88;95.17;98126.97;107184;1275;24212;-83
2023/08/18 01:58:11;;;;;;;14.10;7.40;;;;;;;19.85;94.96;98125.73;107388;1275;22562;-83
2023/08/18 02:00:39;;;;;;;9.40;7.10;;;;;;;19.80;94.88;98127.09;107405;1275;22567;-83
2023/08/18 02:03:08;;;;;;;9.00;6.90;;;;;;;19.76;94.94;98127.63;107239;1275;22634;-83
2023/08/18 02:05:39;;;;;;;9.10;6.50;;;;;;;19.74;95.00;98127.64;107517;1275;22666;-82
2023/08/18 02:08:07;;;;;;;13.30;7.30;;;;;;;19.74;95.28;98126.79;107444;1275;22577;-82
2023/08/18 02:10:35;;;;;;;8.50;5.70;;;;;;;19.74;95.10;98128.13;107408;1275;24451;-82
2023/08/18 02:13:04;;;;;;;9.80;6.70;;;;;;;19.71;95.12;98127.98;107166;1275;22607;-81
2023/08/18 02:15:31;;;;;;;11.70;7.50;;;;;;;19.67;94.91;98126.92;107328;1275;24275;-81
2023/08/18 02:17:59;;;;;;;8.30;6.90;;;;;;;19.51;94.47;98128.79;107399;1275;24239;-81
2023/08/18 02:20:28;;;;;;;8.10;6.20;;;;;;;19.47;95.20;98126.70;107374;1275;25335;-81
2023/08/18 02:22:56;;;;;;;7.20;6.50;;;;;;;19.41;95.84;98130.15;107454;1275;22534;-80
2023/08/18 02:25:24;;;;;;;10.60;6.40;;;;;;;19.31;96.02;98131.30;107453;1275;22555;-80
2023/08/18 02:27:52;;;;;;;9.10;5.80;;;;;;;19.28;96.23;98131.77;107441;1275;22612;-81
2023/08/18 02:30:20;;;;;;;9.50;6.80;;;;;;;19.30;96.38;98131.21;107487;1275;25455;-81
2023/08/18 02:32:48;;;;;;;7.20;6.40;;;;;;;19.37;96.24;98131.83;107443;1275;23307;-82
2023/08/18 02:35:16;;;;;;;11.70;6.50;;;;;;;19.40;96.34;98137.84;107466;1275;25591;-81
2023/08/18 02:37:44;;;;;;;7.30;6.50;;;;;;;19.44;96.36;98133.90;107167;1275;22634;-82
2023/08/18 02:40:13;;;;;;;10.30;6.40;;;;;;;19.47;96.09;98129.98;107548;1275;22593;-81
2023/08/18 02:42:41;;;;;;;8.00;5.60;;;;;;;19.49;96.06;98130.42;107436;1275;24199;-80
2023/08/18 02:45:09;;;;;;;6.80;5.60;;;;;;;19.54;96.24;98129.38;107451;1275;25499;-81
2023/08/18 02:47:40;;;;;;;7.50;6.10;;;;;;;19.60;96.25;98128.29;107345;1275;22646;-81
2023/08/18 02:50:08;;;;;;;13.70;6.70;;;;;;;19.64;96.23;98132.84;107308;1275;22521;-81
2023/08/18 02:52:36;;;;;;;10.00;6.90;;;;;;;19.68;96.11;98131.81;107374;1275;23002;-82
2023/08/18 02:55:05;;;;;;;9.60;6.90;;;;;;;19.68;95.74;98126.95;107463;1266;22649;-82
2023/08/18 02:57:33;;;;;;;8.30;6.10;;;;;;;19.66;95.89;98126.52;107618;1275;23189;-83
2023/08/18 03:00:00;;;;;;;9.20;6.90;;;;;;;19.69;95.87;98131.04;107678;1275;23900;-83
2023/08/18 03:02:30;;;;;;;6.80;6.10;;;;;;;19.72;95.71;98130.09;107321;1275;22589;-83
2023/08/18 03:04:58;;;;;;;10.50;6.60;;;;;;;19.75;95.71;98130.64;107430;1275;24274;-82
2023/08/18 03:07:26;;;;;;;6.50;5.80;;;;;;;19.79;95.72;98129.17;107461;1275;24248;-83
2023/08/18 03:09:57;;;;;;;11.20;6.80;;;;;;;19.82;95.80;98128.94;107382;1275;22529;-83
2023/08/18 03:12:25;;;;;;;8.30;6.30;;;;;;;19.81;95.33;98123.27;107436;1275;24222;-83
2023/08/18 03:14:53;;;;;;;8.10;6.60;;;;;;;19.70;95.23;98118.56;107377;1275;22535;-83
2023/08/18 03:17:21;;;;;;;7.30;6.10;;;;;;;19.55;95.38;98117.15;107319;1275;22555;-83
2023/08/18 03:19:49;;;;;;;7.60;5.90;;;;;;;19.41;95.64;98116.33;107216;1258;22791;-83
2023/08/18 03:22:17;;;;;;;8.40;5.70;;;;;;;19.36;96.04;98116.58;107209;1275;23132;-82
2023/08/18 03:24:45;;;;;;;10.10;5.80;;;;;;;19.38;96.21;98110.25;107229;1275;22527;-83
2023/08/18 03:27:13;;;;;;;6.30;5.70;;;;;;;19.41;96.02;98103.19;107455;1275;25481;-83
2023/08/18 03:29:41;;;;;;;8.50;5.80;;;;;;;19.42;96.09;98099.27;107500;1275;22731;-82
2023/08/18 03:32:09;;;;;;;9.80;6.40;;;;;;;19.47;96.22;98099.38;107442;1275;22609;-83
2023/08/18 03:34:38;;;;;;;7.40;6.20;;;;;;;19.47;96.09;98101.66;107413;1275;22756;-82
2023/08/18 03:37:06;;;;;;;9.40;6.60;;;;;;;19.48;96.22;98100.98;107144;1254;22580;-82
2023/08/18 03:39:34;;;;;;;7.80;6.40;;;;;;;19.51;96.08;98099.19;107132;1275;22971;-82
2023/08/18 03:42:02;;;;;;;6.40;5.70;;;;;;;19.52;95.94;98097.09;107346;1275;22644;-83
2023/08/18 03:44:30;;;;;;;7.70;6.70;;;;;;;19.54;96.08;98094.88;107125;1275;25583;-83
2023/08/18 03:47:00;;;;;;;6.50;5.80;;;;;;;19.55;95.90;98098.73;107052;1258;22774;-82
2023/08/18 03:49:29;;;;;;;8.70;6.30;;;;;;;19.54;95.87;98098.38;107529;1262;22566;-85
2023/08/18 03:52:00;;;;;;;8.50;6.90;;;;;;;19.53;95.86;98096.88;108498;1275;25435;-82
2023/08/18 03:54:28;;;;;;;9.30;5.70;;;;;;;19.48;95.80;98090.73;107734;1275;22540;-83
2023/08/18 03:56:57;;;;;;;9.50;7.10;;;;;;;19.50;96.25;98097.42;107199;1275;22531;-83
2023/08/18 03:59:25;;;;;;;8.40;5.70;;;;;;;19.50;95.91;98101.42;107385;1275;22540;-82
2023/08/18 04:01:53;;;;;;;7.70;5.60;;;;;;;19.51;95.87;98105.89;107346;1275;22535;-83
2023/08/18 04:04:21;;;;;;;9.20;5.70;;;;;;;19.52;95.99;98107.40;107342;1275;22529;-83
2023/08/18 04:06:49;;;;;;;8.90;6.50;;;;;;;19.56;96.00;98108.02;107451;1275;22658;-82
2023/08/18 04:09:17;;;;;;;8.40;6.80;;;;;;;19.46;94.79;98107.34;107487;1275;22648;-82
2023/08/18 04:11:46;;;;;;;9.10;6.30;;;;;;;19.32;94.86;98106.35;107412;1275;22524;-82
2023/08/18 04:14:16;;;;;;;15.00;12.70;;;;;;;19.17;94.47;98104.02;107454;1275;22659;-82
2023/08/18 04:16:45;;;;;;;8.10;7.20;;;;;;;19.03;95.52;98105.58;107417;1275;24203;-83
2023/08/18 04:19:13;;;;;;;9.10;7.30;;;;;;;19.05;96.29;98105.27;107429;1275;22773;-84
2023/08/18 04:21:42;;;;;;;9.60;6.60;;;;;;;18.96;94.96;98103.67;107434;1275;25332;-84
2023/08/18 04:24:10;;;;;;;10.20;7.30;;;;;;;18.83;95.31;98104.65;107271;1275;25489;-83
2023/08/18 04:26:39;;;;;;;8.60;6.40;;;;;;;18.64;95.73;98102.92;107437;1253;25617;-84
2023/08/18 04:29:08;;;;;;;8.00;7.00;;;;;;;18.50;96.70;98107.62;107555;1275;22557;-83
2023/08/18 04:31:37;;;;;;;9.70;8.00;;;;;;;18.48;96.09;98105.73;107427;1275;22558;-83
2023/08/18 04:34:12;;;;;;;11.40;7.90;;;;;;;18.33;95.89;98107.11;107507;1275;22611;-82
2023/08/18 04:36:41;;;;;;;12.00;8.00;;;;;;;18.22;95.99;98112.23;107436;1275;22542;-83
2023/08/18 04:39:12;;;;;;;11.20;7.60;;;;;;;18.16;96.28;98114.84;107457;1275;22558;-82
2023/08/18 04:41:40;;;;;;;9.50;7.70;;;;;;;18.09;97.86;98120.63;107397;1275;22612;-83
2023/08/18 04:44:08;;;;;;;10.60;8.50;;;;;;;18.00;98.86;98121.59;107118;1275;25333;-82
2023/08/18 04:46:37;;;;;;;11.60;8.20;;;;;;;17.89;99.51;98128.65;107145;1275;22603;-83
2023/08/18 04:49:11;;;;;;;7.70;6.70;;;;;;;17.80;99.67;98130.79;107466;1271;24198;-83
2023/08/18 04:51:40;;;;;;;10.00;6.60;;;;;;;17.92;100.00;98132.02;107467;1275;22636;-83
2023/08/18 04:54:11;;;;;;;6.30;5.10;;;;;;;18.24;100.00;98127.23;107676;1275;22572;-83
2023/08/18 04:56:42;;;;;;;7.30;6.10;;;;;;;18.59;100.00;98130.33;107398;1275;25332;-83
2023/08/18 04:59:10;;;;;;;7.00;5.70;;;;;;;18.84;100.00;98131.41;107415;1275;22569;-82
2023/08/18 05:01:38;;;;;;;13.60;8.60;;;;;;;19.00;100.00;98130.02;107265;1275;23981;-81
2023/08/18 05:04:06;;;;;;;9.40;7.60;;;;;;;19.03;100.00;98131.70;107162;1275;25409;-81
2023/08/18 05:06:34;;;;;;;14.70;13.10;;;;;;;19.08;100.00;98132.64;107363;1275;22659;-81
2023/08/18 05:09:05;;;;;;;18.70;16.80;;;;;;;19.11;100.00;98137.95;107400;1275;22616;-81
2023/08/18 05:11:33;;;;;;;7.90;7.00;;;;;;;19.20;100.00;98136.02;107233;1275;26678;-82
2023/08/18 05:14:01;;;;;;;5.60;4.70;;;;;;;19.46;100.00;98133.70;107256;1275;27130;-82
2023/08/18 05:16:29;;;;;;;7.60;4.90;;;;;;;19.71;100.00;98129.76;107510;1275;22754;-83
2023/08/18 05:18:59;;;;;;;8.90;5.00;;;;;;;19.93;100.00;98126.14;107464;1275;25592;-83
2023/08/18 05:21:27;;;;;;;7.30;5.50;;;;;;;20.07;100.00;98126.16;107427;1275;24242;-83
2023/08/18 05:23:55;;;;;;;9.10;5.70;;;;;;;20.22;100.00;98126.82;107479;1275;23497;-83
2023/08/18 05:26:23;;;;;;;10.30;6.70;;;;;;;20.30;99.54;98132.46;107441;1275;22542;-83
2023/08/18 05:28:51;;;;;;;12.60;8.50;;;;;;;20.32;99.40;98132.04;107414;1275;24324;-83
2023/08/18 05:31:19;;;;;;;9.30;8.00;;;;;;;20.27;98.71;98133.09;107437;1275;22589;-83
2023/08/18 05:33:47;;;;;;;12.90;8.20;;;;;;;20.19;98.45;98137.38;107417;1275;22603;-84
2023/08/18 05:36:15;;;;;;;7.00;6.20;;;;;;;20.26;99.81;98138.54;107450;1275;22528;-83
2023/08/18 05:38:42;;;;;;;9.80;7.70;;;;;;;20.41;99.70;98135.69;107240;1275;22967;-83
2023/08/18 05:41:13;;;;;;;10.20;9.20;;;;;;;20.35;98.10;98133.74;107514;1275;22585;-81
2023/08/18 05:43:42;;;;;;;13.50;9.20;;;;;;;20.18;97.80;98130.24;107560;1275;25611;-81
2023/08/18 05:46:10;;;;;;;17.70;9.90;;;;;;;20.04;98.10;98131.39;107412;1275;25477;-82
2023/08/18 05:48:38;;;;;;;12.80;10.00;;;;;;;19.98;98.22;98122.66;107070;1275;25271;-82
2023/08/18 05:51:06;;;;;;;11.20;8.70;;;;;;;19.91;98.13;98121.20;107286;1275;22581;-83
2023/08/18 05:53:34;;;;;;;12.00;7.50;;;;;;;19.96;99.19;98116.54;107504;1275;22539;-84
2023/08/18 05:56:02;;;;;;;14.10;8.60;;;;;;;20.07;99.19;98119.52;107539;1267;25564;-84
2023/08/18 05:58:30;;;;;;;11.20;5.80;;;;;;;20.22;99.97;98121.41;107612;1268;22820;-82
2023/08/18 06:00:59;;;;;;;17.20;9.20;;;;;;;20.46;99.85;98119.35;107632;1269;22942;-79
2023/08/18 06:03:27;;;;;;;11.00;8.00;;;;;;;20.50;99.20;98116.77;107394;1269;26683;-77
2023/08/18 06:06:00;;;;;;;13.20;9.30;;;;;;;20.56;99.44;98118.81;107356;1275;22671;-79
2023/08/18 06:08:33;;;;;;;12.80;9.80;;;;;;;20.60;98.76;98122.73;107248;1275;22531;-77
2023/08/18 06:11:01;;;;;;;10.20;8.60;;;;;;;20.49;98.63;98111.40;107311;1275;22520;-78
2023/08/18 06:13:29;;;;;;;10.70;8.00;;;;;;;20.57;98.65;98126.42;107228;1275;22644;-77
2023/08/18 06:15:57;;;;;;;11.30;9.20;;;;;;;20.62;98.77;98119.10;106957;1275;24203;-80
2023/08/18 06:18:25;;;;;;;13.60;9.50;;;;;;;20.68;98.83;98117.73;107299;1276;22520;-78
2023/08/18 06:20:53;;;;;;;8.40;6.40;;;;;;;20.78;99.01;98116.08;107367;1276;25403;-77
2023/08/18 06:23:21;;;;;;;11.30;8.90;;;;;;;20.94;99.56;98111.84;106874;1276;23362;-76
2023/08/18 06:25:49;;;;;;;9.80;7.30;;;;;;;21.05;98.94;98109.39;106841;1276;22600;-78
2023/08/18 06:28:17;;;;;;;17.50;8.30;;;;;;;21.16;98.94;98109.66;107265;1276;24672;-78
2023/08/18 06:30:45;;;;;;;13.10;7.20;;;;;;;21.29;98.74;98108.65;107714;1276;24381;-79
2023/08/18 06:33:13;;;;;;;8.10;6.60;;;;;;;21.45;98.47;98110.90;107097;1276;26513;-78
2023/08/18 06:35:41;;;;;;;10.70;8.80;;;;;;;21.63;98.65;98113.48;107337;1276;22536;-78
2023/08/18 06:38:09;;;;;;;10.30;8.30;;;;;;;21.78;97.77;98114.98;107330;1276;22557;-78
2023/08/18 06:40:37;;;;;;;14.40;8.00;;;;;;;21.84;97.13;98117.66;107357;1276;22528;-77
2023/08/18 06:43:05;;;;;;;9.40;8.40;;;;;;;21.85;96.83;98120.03;107331;1276;25330;-78
2023/08/18 06:45:33;;;;;;;11.70;8.10;;;;;;;21.89;96.68;98121.02;107294;1276;25475;-78
2023/08/18 06:48:01;;;;;;;10.20;7.80;;;;;;;21.92;96.29;98122.57;107277;1276;22649;-77
2023/08/18 06:50:29;;;;;;;8.60;7.00;;;;;;;22.03;96.28;98130.26;107318;1276;26741;-78
2023/08/18 06:52:57;;;;;;;8.30;7.40;;;;;;;22.12;96.28;98128.36;107325;1276;22632;-78
2023/08/18 06:55:25;;;;;;;10.10;7.80;;;;;;;22.16;95.71;98127.66;107335;1276;23879;-77
2023/08/18 06:58:14;;;;;;;9.40;7.60;;;;;;;22.21;95.61;98126.16;107065;1276;22788;-77
2023/08/18 07:00:41;;;;;;;10.10;7.50;;;;;;;22.29;95.42;98122.52;107325;1276;22633;-80
2023/08/18 07:03:09;;;;;;;10.90;7.70;;;;;;;22.37;94.86;98123.95;106940;1276;22536;-80
2023/08/18 07:05:38;;;;;;;14.10;8.00;;;;;;;22.38;94.72;98121.63;107397;1276;22528;-80
2023/08/18 07:08:05;;;;;;;11.30;7.70;;;;;;;22.42;94.58;98124.66;107463;1276;22651;-80
2023/08/18 07:10:33;;;;;;;11.20;8.40;;;;;;;22.47;94.51;98126.45;107398;1276;25448;-80
2023/08/18 07:13:03;;;;;;;10.10;7.30;;;;;;;22.52;93.84;98131.14;107274;1276;22633;-82
2023/08/18 07:15:31;;;;;;;11.70;7.80;;;;;;;22.57;94.07;98134.82;107349;1275;22536;-80
2023/08/18 07:17:59;;;;;;;9.20;6.40;;;;;;;22.69;94.23;98135.61;107451;1275;22545;-80
2023/08/18 07:20:27;;;;;;;7.70;6.50;;;;;;;22.86;94.19;98138.48;107517;1275;23354;-79
2023/08/18 07:22:56;;;;;;;15.50;7.00;;;;;;;22.99;93.75;98140.64;107542;1275;22529;-79
2023/08/18 07:25:24;;;;;;;9.40;7.10;;;;;;;23.05;92.82;98140.62;107574;1275;22648;-79
2023/08/18 07:27:52;;;;;;;10.00;7.40;;;;;;;23.06;92.65;98139.69;107594;1275;22781;-78
2023/08/18 07:30:21;;;;;;;8.00;6.80;;;;;;;23.10;92.78;98133.68;107069;1275;24357;-80
2023/08/18 07:32:49;;;;;;;9.20;6.40;;;;;;;23.19;92.38;98133.16;107028;1275;23041;-79
2023/08/18 07:35:17;;;;;;;14.60;6.20;;;;;;;23.33;92.75;98135.19;107481;1275;22619;-79
2023/08/18 07:37:45;;;;;;;7.50;6.20;;;;;;;23.45;91.81;98136.32;107526;1275;23924;-79
2023/08/18 07:40:17;;;;;;;10.30;6.40;;;;;;;23.54;91.16;98141.67;107449;1275;22646;-79
2023/08/18 07:42:45;;;;;;;11.00;6.80;;;;;;;23.59;90.52;98139.98;107537;1275;22690;-79
2023/08/18 07:45:13;;;;;;;12.30;5.80;;;;;;;23.59;88.68;98143.38;107509;1275;22652;-79
2023/08/18 07:47:44;;;;;;;9.70;6.30;;;;;;;23.60;89.57;98146.36;107600;1275;25332;-79
2023/08/18 07:50:14;;;;;;;8.40;6.10;;;;;;;23.68;88.24;98153.11;107579;1275;22533;-80
2023/08/18 07:52:42;;;;;;;11.40;6.30;;;;;;;23.76;88.79;98150.61;107468;1275;22755;-78
2023/08/18 07:55:10;;;;;;;13.80;6.30;;;;;;;23.86;87.48;98154.80;107425;1275;24378;-79
2023/08/18 07:57:38;;;;;;;10.70;6.10;;;;;;;23.87;86.50;98158.56;107512;1251;25491;-79
2023/08/18 08:00:18;;;;;;;8.80;5.30;;;;;;;23.95;87.02;98155.41;107443;1275;26523;-80
2023/08/18 08:02:47;;;;;;;9.50;5.60;;;;;;;24.14;87.16;98156.41;107504;1275;22590;-79
2023/08/18 08:05:20;;;;;;;10.40;5.30;;;;;;;24.30;86.96;98160.30;107502;1275;22524;-78
2023/08/18 08:07:49;;;;;;;9.10;5.30;;;;;;;24.40;86.09;98164.63;107443;1275;23934;-79
2023/08/18 08:10:17;;;;;;;8.10;5.70;;;;;;;24.48;85.44;98167.05;107483;1275;22538;-78
2023/08/18 08:12:48;;;;;;;13.70;5.60;;;;;;;24.59;84.89;98173.89;107532;1275;24182;-79
2023/08/18 08:15:17;;;;;;;8.10;5.20;;;;;;;24.66;83.86;98174.80;107514;1275;24185;-79
2023/08/18 08:17:45;;;;;;;7.30;5.10;;;;;;;24.69;81.78;98174.33;107539;1275;25288;-79
2023/08/18 08:20:16;;;;;;;8.30;5.20;;;;;;;24.71;80.57;98173.02;107568;1275;22729;-81
2023/08/18 08:22:47;;;;;;;12.00;5.70;;;;;;;24.62;78.76;98174.53;107495;1275;22520;-81
2023/08/18 08:25:17;;;;;;;9.10;5.40;;;;;;;24.52;78.11;98176.29;107578;1275;23229;-80
2023/08/18 08:27:45;;;;;;;8.00;5.20;;;;;;;24.55;77.66;98176.61;107583;1275;24196;-81
2023/08/18 08:30:13;;;;;;;11.80;6.70;;;;;;;24.60;74.76;98171.30;107561;1271;22619;-81
2023/08/18 08:33:03;;;;;;;8.90;5.70;;;;;;;24.57;75.80;98165.77;107545;1275;22520;-81
2023/08/18 08:35:32;;;;;;;6.60;4.80;;;;;;;24.64;76.30;98168.79;107616;1252;22560;-79
2023/08/18 08:38:01;;;;;;;8.40;5.20;;;;;;;24.73;76.31;98164.51;107453;1275;22649;-78
2023/08/18 08:40:29;;;;;;;8.40;5.50;;;;;;;24.88;76.70;98163.33;107371;1274;22524;-80
2023/08/18 08:42:57;;;;;;;6.60;5.60;;;;;;;25.07;77.40;98156.94;107275;1274;22523;-78
2023/08/18 08:45:28;;;;;;;10.00;6.10;;;;;;;25.23;77.52;98160.55;107413;1276;25351;-80
2023/08/18 08:47:59;;;;;;;9.60;6.60;;;;;;;25.39;77.10;98157.84;107436;1276;22580;-80
2023/08/18 08:50:32;;;;;;;10.30;6.60;;;;;;;25.41;75.11;98157.67;107446;1269;24399;-80
2023/08/18 08:53:01;;;;;;;9.60;6.30;;;;;;;25.39;74.22;98151.69;107412;1276;23248;-79
2023/08/18 08:55:32;;;;;;;7.40;6.10;;;;;;;25.32;75.34;98152.22;107166;1276;23372;-80
2023/08/18 08:58:02;;;;;;;8.90;6.30;;;;;;;25.33;74.12;98150.34;107139;1276;23740;-81
2023/08/18 09:00:30;;;;;;;10.20;6.20;;;;;;;25.33;74.31;98145.54;107394;1276;24378;-81
2023/08/18 09:03:01;;;;;;;9.10;6.70;;;;;;;25.33;73.74;98143.95;107412;1268;22580;-80
2023/08/18 09:05:32;;;;;;;10.00;6.70;;;;;;;25.35;73.89;98142.79;107524;1268;25279;-81
2023/08/18 09:08:00;;;;;;;9.50;6.90;;;;;;;25.41;73.95;98138.92;107056;1275;25288;-80
2023/08/18 09:10:28;;;;;;;9.40;6.40;;;;;;;25.49;74.47;98136.17;107492;1275;24242;-81
2023/08/18 09:12:56;;;;;;;7.80;6.40;;;;;;;25.66;75.04;98138.65;107549;1275;22632;-80
2023/08/18 09:15:25;;;;;;;13.50;6.90;;;;;;;25.84;75.08;98141.27;107374;1275;25271;-80
2023/08/18 09:17:53;;;;;;;9.00;6.50;;;;;;;26.00;74.73;98140.96;107415;1275;22989;-80
2023/08/18 09:20:22;;;;;;;10.00;7.40;;;;;;;26.12;74.01;98139.77;107443;1275;25498;-80
2023/08/18 09:22:55;;;;;;;9.80;7.30;;;;;;;26.15;73.18;98138.48;107469;1257;22736;-81
2023/08/18 09:25:23;;;;;;;11.50;8.70;;;;;;;26.29;74.16;98139.74;107070;1275;22795;-82
2023/08/18 09:27:56;;;;;;;9.80;7.40;;;;;;;26.46;72.62;98137.89;107459;1275;22548;-81
2023/08/18 09:30:24;;;;;;;9.80;7.30;;;;;;;26.49;72.60;98133.79;107342;1275;22770;-81
2023/08/18 09:32:52;;;;;;;10.30;7.30;;;;;;;26.59;72.52;98137.24;107037;1275;25332;-78
2023/08/18 09:35:20;;;;;;;10.40;7.00;;;;;;;26.62;72.53;98138.02;107011;1275;22518;-78
2023/08/18 09:37:55;;;;;;;8.30;6.90;;;;;;;26.68;72.09;98134.84;107106;1275;25285;-80
2023/08/18 09:40:24;;;;;;;10.40;6.70;;;;;;;26.75;72.17;98132.69;107100;1275;22567;-79
2023/08/18 09:42:53;;;;;;;8.30;6.30;;;;;;;26.84;71.28;98132.26;107051;1275;22574;-80
2023/08/18 09:45:23;;;;;;;9.80;7.60;;;;;;;26.96;70.97;98131.89;107553;1275;22531;-80
2023/08/18 09:47:54;;;;;;;16.30;8.10;;;;;;;27.03;71.26;98129.33;107530;1275;22535;-80
2023/08/18 09:50:29;;;;;;;9.30;7.40;;;;;;;27.11;70.38;98129.43;107574;1275;23144;-80
2023/08/18 09:52:58;;;;;;;11.10;7.60;;;;;;;27.16;70.53;98133.31;107522;1275;22832;-80
2023/08/18 09:55:33;;;;;;;10.60;7.30;;;;;;;27.22;70.19;98133.59;107492;1275;24433;-80
2023/08/18 09:58:25;;;;;;;9.30;7.10;;;;;;;27.33;70.12;98129.43;107392;1275;22637;-78
2023/08/18 10:00:56;;;;;;;10.20;7.10;;;;;;;27.55;70.28;98127.38;107569;1275;24231;-78
2023/08/18 10:03:28;;;;;;;9.90;6.70;;;;;;;27.75;70.09;98124.86;107089;1275;22536;-81
2023/08/18 10:05:58;;;;;;;18.00;7.50;;;;;;;27.79;69.87;98125.79;107492;1262;23998;-78
2023/08/18 10:08:26;;;;;;;8.60;7.60;;;;;;;27.82;69.32;98124.18;107524;1276;22567;-78
2023/08/18 10:10:54;;;;;;;11.60;7.90;;;;;;;27.80;67.57;98125.55;107011;1276;24402;-78
2023/08/18 10:13:23;;;;;;;9.30;7.20;;;;;;;27.69;67.21;98123.47;107453;1276;22836;-78
2023/08/18 10:15:52;;;;;;;10.60;7.80;;;;;;;27.73;68.18;98124.87;106947;1276;22530;-78
2023/08/18 10:18:21;;;;;;;11.00;7.70;;;;;;;27.86;67.89;98119.96;106938;1276;22672;-80
2023/08/18 10:20:52;;;;;;;12.60;7.50;;;;;;;27.92;66.81;98117.30;106936;1276;23930;-80
2023/08/18 10:23:23;;;;;;;9.60;8.10;;;;;;;27.97;67.23;98121.52;108128;1275;23211;-78
2023/08/18 10:25:52;;;;;;;11.80;8.10;;;;;;;28.07;66.67;98122.79;107012;1276;25325;-81
2023/08/18 10:28:26;;;;;;;12.90;8.00;;;;;;;28.17;67.11;98124.81;107075;1276;23904;-79
2023/08/18 10:31:09;;;;;;;11.10;7.90;;;;;;;28.28;65.10;98127.16;107347;1276;22694;-77
2023/08/18 10:33:38;;;;;;;16.60;7.90;;;;;;;28.31;65.85;98124.45;107529;1268;22513;-79
2023/08/18 10:36:07;;;;;;;11.90;8.40;;;;;;;28.37;65.12;98120.50;107154;1275;25435;-79
2023/08/18 10:38:38;;;;;;;10.80;7.80;;;;;;;28.46;65.89;98121.79;107508;1275;25510;-78
2023/08/18 10:41:07;;;;;;;10.90;8.00;;;;;;;28.57;64.20;98123.41;107558;1275;24110;-79
2023/08/18 10:43:45;;;;;;;11.90;8.00;;;;;;;28.57;64.51;98118.73;107442;1275;23382;-80
2023/08/18 10:46:13;;;;;;;11.80;8.40;;;;;;;28.70;65.13;98118.81;107026;1275;24216;-80
2023/08/18 10:48:42;;;;;;;10.70;7.70;;;;;;;28.86;64.12;98121.95;107180;1270;23895;-82
2023/08/18 10:51:10;;;;;;;13.50;8.50;;;;;;;29.00;64.65;98115.52;107863;1275;22920;-79
2023/08/18 10:53:40;;;;;;;14.50;8.60;;;;;;;29.12;64.10;98114.17;107001;1275;22516;-82
2023/08/18 10:56:08;;;;;;;10.20;8.20;;;;;;;29.18;63.53;98117.19;107645;1275;24229;-81
2023/08/18 10:58:36;;;;;;;15.10;8.80;;;;;;;29.22;63.65;98114.68;107467;1275;24247;-80
2023/08/18 11:01:08;;;;;;;16.60;8.90;;;;;;;29.35;63.76;98115.59;107539;1275;22569;-78
2023/08/18 11:03:39;;;;;;;11.20;8.30;;;;;;;29.39;61.86;98116.41;107204;1275;25250;-79
2023/08/18 11:06:07;;;;;;;15.70;8.00;;;;;;;29.29;62.47;98115.92;107683;1275;22544;-79
2023/08/18 11:08:36;;;;;;;10.70;7.30;;;;;;;29.30;60.80;98111.00;107496;1275;22615;-78
2023/08/18 11:11:04;;;;;;;14.30;7.90;;;;;;;29.34;60.85;98108.56;107527;1275;22588;-78
2023/08/18 11:13:32;;;;;;;10.10;7.30;;;;;;;29.39;60.88;98108.79;107049;1275;22520;-78
2023/08/18 11:16:01;;;;;;;11.70;7.90;;;;;;;29.49;60.44;98111.81;107543;1275;22530;-79
2023/08/18 11:18:30;;;;;;;12.60;8.00;;;;;;;29.57;59.63;98108.92;107589;1275;25502;-79
2023/08/18 11:20:58;;;;;;;10.70;6.90;;;;;;;29.54;59.26;98108.41;106991;1275;24092;-78
2023/08/18 11:23:26;;;;;;;10.80;8.00;;;;;;;29.64;60.11;98103.03;106932;1275;22561;-78
2023/08/18 11:25:55;;;;;;;12.40;7.20;;;;;;;29.87;60.12;98099.55;107007;1275;22604;-79
2023/08/18 11:28:24;;;;;;;9.70;7.20;;;;;;;30.12;60.12;98098.23;107479;1275;23152;-79